createdAt,value
2018-09-04T00:01:25.508Z,95502.09
2018-09-04T00:04:00.231Z,95500.60
2018-09-04T00:06:34.983Z,95501.12
2018-09-04T00:09:09.693Z,95498.72
2018-09-04T00:11:44.183Z,95493.12
2018-09-04T00:14:19.265Z,95496.26
2018-09-04T00:16:53.884Z,95494.72
2018-09-04T00:19:28.436Z,95492.00
2018-09-04T00:22:02.931Z,95488.80
2018-09-04T00:24:37.977Z,95485.74
2018-09-04T00:27:13.086Z,95486.23
2018-09-04T00:29:47.512Z,95484.43
2018-09-04T00:32:22.175Z,95483.41
2018-09-04T00:34:56.693Z,95480.69
2018-09-04T00:37:31.623Z,95481.89
2018-09-04T00:40:06.591Z,95478.28
2018-09-04T00:42:40.923Z,95477.16
2018-09-04T00:45:15.600Z,95478.56
2018-09-04T00:47:50.067Z,95477.97
2018-09-04T00:50:25.392Z,95480.69
2018-09-04T00:52:59.831Z,95475.85
2018-09-04T00:55:34.458Z,95470.70
2018-09-04T00:58:09.656Z,95480.48
2018-09-04T01:00:44.608Z,95477.79
2018-09-04T01:03:19.251Z,95478.36
2018-09-04T01:05:54.009Z,95478.94
2018-09-04T01:08:28.492Z,95478.19
2018-09-04T01:11:02.751Z,95478.70
2018-09-04T01:13:43.944Z,95469.64
2018-09-04T01:16:18.803Z,95469.00
2018-09-04T01:18:53.358Z,95469.00
2018-09-04T01:21:27.892Z,95470.48
2018-09-04T01:24:02.592Z,95472.43
2018-09-04T01:26:36.943Z,95472.43
2018-09-04T01:29:11.372Z,95475.59
2018-09-04T01:31:45.843Z,95470.75
2018-09-04T01:34:20.659Z,95471.49
2018-09-04T01:36:55.097Z,95470.57
2018-09-04T01:39:29.439Z,95474.86
2018-09-04T01:42:04.713Z,95475.50
2018-09-04T01:44:39.546Z,95479.31
2018-09-04T01:47:14.218Z,95471.37
2018-09-04T01:49:48.611Z,95478.39
2018-09-04T01:52:23.167Z,95478.67
2018-09-04T01:54:57.721Z,95471.66
2018-09-04T01:57:32.465Z,95476.78
2018-09-04T02:00:08.122Z,95471.66
2018-09-04T02:02:42.632Z,95469.61
2018-09-04T02:05:17.704Z,95470.12
2018-09-04T02:07:52.101Z,95472.11
2018-09-04T02:10:26.450Z,95474.29
2018-09-04T02:13:00.884Z,95469.03
2018-09-04T02:15:35.320Z,95467.43
2018-09-04T02:18:10.284Z,95467.02
2018-09-04T02:20:45.077Z,95466.64
2018-09-04T02:23:19.755Z,95468.17
2018-09-04T02:25:54.060Z,95467.88
2018-09-04T02:28:28.727Z,95464.84
2018-09-04T02:31:03.239Z,95465.94
2018-09-04T02:33:37.527Z,95473.81
2018-09-04T02:36:12.286Z,95473.81
2018-09-04T02:38:47.200Z,95481.97
2018-09-04T02:41:21.911Z,95477.37
2018-09-04T02:43:56.908Z,95476.38
2018-09-04T02:46:31.196Z,95475.92
2018-09-04T02:49:06.746Z,95479.48
2018-09-04T02:51:41.229Z,95476.44
2018-09-04T02:54:15.795Z,95472.21
2018-09-04T02:56:50.782Z,95473.17
2018-09-04T02:59:25.231Z,95472.14
2018-09-04T03:01:59.607Z,95471.63
2018-09-04T03:04:33.915Z,95482.20
2018-09-04T03:07:08.340Z,95480.33
2018-09-04T03:09:42.632Z,95466.47
2018-09-04T03:12:17.025Z,95472.39
2018-09-04T03:14:51.569Z,95473.77
2018-09-04T03:17:26.120Z,95482.52
2018-09-04T03:20:00.573Z,95479.53
2018-09-04T03:22:35.040Z,95483.39
2018-09-04T03:25:09.812Z,95482.80
2018-09-04T03:27:44.388Z,95484.62
2018-09-04T03:30:18.803Z,95487.31
2018-09-04T03:32:53.479Z,95487.45
2018-09-04T03:35:28.780Z,95485.13
2018-09-04T03:38:03.101Z,95482.06
2018-09-04T03:40:37.598Z,95480.75
2018-09-04T03:43:11.998Z,95476.95
2018-09-04T03:45:46.352Z,95474.48
2018-09-04T03:48:20.803Z,95484.17
2018-09-04T03:50:55.404Z,95484.75
2018-09-04T03:53:29.815Z,95475.63
2018-09-04T03:56:04.418Z,95474.55
2018-09-04T03:58:39.528Z,95475.20
2018-09-04T04:01:14.502Z,95479.14
2018-09-04T04:03:49.089Z,95479.58
2018-09-04T04:06:23.906Z,95477.54
2018-09-04T04:08:58.396Z,95479.14
2018-09-04T04:11:32.876Z,95483.01
2018-09-04T04:14:08.400Z,95479.67
2018-09-04T04:16:42.783Z,95476.17
2018-09-04T04:19:17.087Z,95476.81
2018-09-04T04:21:51.780Z,95483.52
2018-09-04T04:24:26.409Z,95483.01
2018-09-04T04:27:00.929Z,95492.48
2018-09-04T04:29:35.384Z,95487.88
2018-09-04T04:32:09.813Z,95492.04
2018-09-04T04:34:44.341Z,95494.25
2018-09-04T04:37:18.704Z,95494.67
2018-09-04T04:39:53.181Z,95506.03
2018-09-04T04:42:27.757Z,95494.43
2018-09-04T04:45:02.940Z,95500.26
2018-09-04T04:47:43.004Z,95502.30
2018-09-04T04:50:18.617Z,95500.77
2018-09-04T04:52:53.511Z,95497.56
2018-09-04T04:55:28.112Z,95510.05
2018-09-04T04:58:02.915Z,95501.86
2018-09-04T05:00:37.324Z,95496.84
2018-09-04T05:03:11.791Z,95500.62
2018-09-04T05:05:46.489Z,95502.95
2018-09-04T05:08:21.168Z,95502.30
2018-09-04T05:10:55.559Z,95506.96
2018-09-04T05:13:30.348Z,95514.83
2018-09-04T05:16:05.516Z,95511.26
2018-09-04T05:18:39.880Z,95507.77
2018-09-04T05:21:14.444Z,95503.22
2018-09-04T05:23:49.120Z,95507.83
2018-09-04T05:26:23.576Z,95507.62
2018-09-04T05:28:58.250Z,95504.41
2018-09-04T05:31:37.491Z,95511.41
2018-09-04T05:34:12.164Z,95512.29
2018-09-04T05:36:46.886Z,95510.54
2018-09-04T05:39:21.749Z,95517.97
2018-09-04T05:42:00.834Z,95515.34
2018-09-04T05:44:35.440Z,95509.81
2018-09-04T05:47:10.605Z,95506.34
2018-09-04T05:49:45.068Z,95512.10
2018-09-04T05:52:19.559Z,95521.69
2018-09-04T05:54:54.456Z,95516.65
2018-09-04T05:57:29.161Z,95529.54
2018-09-04T06:00:07.263Z,95523.20
2018-09-04T06:02:42.122Z,95531.95
2018-09-04T06:05:16.459Z,95531.95
2018-09-04T06:07:51.220Z,95539.74
2018-09-04T06:10:25.951Z,95540.14
2018-09-04T06:13:00.324Z,95539.81
2018-09-04T06:15:35.429Z,95541.06
2018-09-04T06:18:09.950Z,95537.52
2018-09-04T06:20:44.815Z,95538.73
2018-09-04T06:23:19.260Z,95539.12
2018-09-04T06:25:53.672Z,95541.93
2018-09-04T06:28:28.483Z,95540.84
2018-09-04T06:31:04.581Z,95534.20
2018-09-04T06:33:39.445Z,95541.78
2018-09-04T06:36:14.127Z,95542.80
2018-09-04T06:38:49.185Z,95542.37
2018-09-04T06:41:23.472Z,95538.97
2018-09-04T06:43:57.908Z,95545.89
2018-09-04T06:46:32.501Z,95547.79
2018-09-04T06:49:07.128Z,95547.23
2018-09-04T06:51:42.035Z,95545.75
2018-09-04T06:54:17.990Z,95549.03
2018-09-04T06:56:52.411Z,95557.22
2018-09-04T06:59:27.091Z,95553.69
2018-09-04T07:02:01.410Z,95552.89
2018-09-04T07:04:35.715Z,95555.80
2018-09-04T07:07:10.082Z,95555.88
2018-09-04T07:09:44.644Z,95556.68
2018-09-04T07:12:19.284Z,95559.59
2018-09-04T07:14:53.771Z,95563.09
2018-09-04T07:17:28.172Z,95560.91
2018-09-04T07:20:03.278Z,95559.08
2018-09-04T07:22:37.978Z,95557.77
2018-09-04T07:25:12.720Z,95567.78
2018-09-04T07:27:47.131Z,95565.52
2018-09-04T07:30:22.043Z,95568.30
2018-09-04T07:32:56.331Z,95572.16
2018-09-04T07:35:30.695Z,95566.69
2018-09-04T07:38:05.528Z,95565.84
2018-09-04T07:40:40.296Z,95567.72
2018-09-04T07:43:14.622Z,95563.16
2018-09-04T07:45:48.901Z,95567.66
2018-09-04T07:48:23.246Z,95570.44
2018-09-04T07:50:57.788Z,95573.50
2018-09-04T07:53:32.348Z,95575.09
2018-09-04T07:56:06.784Z,95579.55
2018-09-04T07:58:41.229Z,95578.03
2018-09-04T08:01:15.990Z,95576.19
2018-09-04T08:03:50.483Z,95574.30
2018-09-04T08:06:24.884Z,95573.80
2018-09-04T08:08:59.346Z,95573.56
2018-09-04T08:11:34.430Z,95577.73
2018-09-04T08:14:09.237Z,95577.15
2018-09-04T08:16:43.955Z,95575.77
2018-09-04T08:19:18.496Z,95583.00
2018-09-04T08:21:52.952Z,95581.17
2018-09-04T08:24:27.342Z,95573.86
2018-09-04T08:27:01.735Z,95577.50
2018-09-04T08:29:36.548Z,95579.63
2018-09-04T08:32:10.892Z,95582.05
2018-09-04T08:34:45.311Z,95573.27
2018-09-04T08:37:19.679Z,95577.36
2018-09-04T08:39:54.400Z,95581.68
2018-09-04T08:42:28.988Z,95579.22
2018-09-04T08:45:03.295Z,95579.50
2018-09-04T08:47:38.725Z,95576.62
2018-09-04T08:50:13.143Z,95577.06
2018-09-04T08:52:47.985Z,95579.76
2018-09-04T08:55:22.632Z,95576.33
2018-09-04T08:57:57.724Z,95568.32
2018-09-04T09:00:32.475Z,95565.83
2018-09-04T09:03:07.696Z,95569.19
2018-09-04T09:05:42.199Z,95563.29
2018-09-04T09:08:16.960Z,95562.27
2018-09-04T09:10:51.743Z,95563.19
2018-09-04T09:13:26.487Z,95573.03
2018-09-04T09:16:01.652Z,95570.44
2018-09-04T09:18:35.990Z,95566.43
2018-09-04T09:21:10.446Z,95565.83
2018-09-04T09:23:44.903Z,95571.30
2018-09-04T09:26:19.261Z,95565.18
2018-09-04T09:28:53.961Z,95572.10
2018-09-04T09:31:28.564Z,95567.08
2018-09-04T09:34:03.001Z,95566.27
2018-09-04T09:36:37.447Z,95560.05
2018-09-04T09:39:12.161Z,95564.67
2018-09-04T09:41:46.632Z,95562.74
2018-09-04T09:44:21.304Z,95562.33
2018-09-04T09:47:01.126Z,95562.10
2018-09-04T09:49:35.479Z,95560.05
2018-09-04T09:52:10.670Z,95559.77
2018-09-04T09:54:45.461Z,95557.14
2018-09-04T09:57:19.847Z,95561.66
2018-09-04T09:59:54.280Z,95562.45
2018-09-04T10:02:34.383Z,95559.66
2018-09-04T10:05:09.216Z,95561.48
2018-09-04T10:07:44.216Z,95567.77
2018-09-04T10:10:18.764Z,95571.87
2018-09-04T10:12:54.156Z,95575.66
2018-09-04T10:15:28.872Z,95569.95
2018-09-04T10:18:05.304Z,95572.20
2018-09-04T10:20:39.700Z,95574.60
2018-09-04T10:23:14.599Z,95571.97
2018-09-04T10:25:49.724Z,95573.22
2018-09-04T10:28:24.579Z,95574.19
2018-09-04T10:30:59.292Z,95569.12
2018-09-04T10:33:33.624Z,95569.25
2018-09-04T10:36:08.179Z,95568.55
2018-09-04T10:38:42.861Z,95570.89
2018-09-04T10:41:17.460Z,95570.95
2018-09-04T10:43:51.899Z,95571.69
2018-09-04T10:46:26.687Z,95570.34
2018-09-04T10:49:01.019Z,95578.06
2018-09-04T10:51:35.926Z,95579.63
2018-09-04T10:54:10.376Z,95585.47
2018-09-04T10:56:50.120Z,95577.58
2018-09-04T10:59:24.983Z,95583.77
2018-09-04T11:01:59.636Z,95586.55
2018-09-04T11:04:35.157Z,95592.09
2018-09-04T11:07:09.588Z,95591.17
2018-09-04T11:09:44.088Z,95591.91
2018-09-04T11:12:18.778Z,95589.18
2018-09-04T11:14:53.219Z,95593.80
2018-09-04T11:17:27.875Z,95591.75
2018-09-04T11:20:02.844Z,95589.98
2018-09-04T11:22:37.315Z,95589.30
2018-09-04T11:25:11.723Z,95588.73
2018-09-04T11:27:46.399Z,95588.05
2018-09-04T11:30:20.916Z,95586.38
2018-09-04T11:32:55.436Z,95592.73
2018-09-04T11:35:29.857Z,95589.65
2018-09-04T11:38:04.304Z,95590.05
2018-09-04T11:40:39.106Z,95582.66
2018-09-04T11:43:14.395Z,95590.55
2018-09-04T11:45:48.679Z,95585.70
2018-09-04T11:48:23.091Z,95596.56
2018-09-04T11:50:57.943Z,95599.84
2018-09-04T11:53:33.040Z,95600.20
2018-09-04T11:56:07.303Z,95603.85
2018-09-04T11:58:46.737Z,95607.52
2018-09-04T12:01:24.976Z,95605.06
2018-09-04T12:03:59.499Z,95602.26
2018-09-04T12:06:33.846Z,95593.22
2018-09-04T12:09:08.934Z,95598.48
2018-09-04T12:11:48.091Z,95603.23
2018-09-04T12:14:23.056Z,95603.80
2018-09-04T12:16:57.491Z,95603.69
2018-09-04T12:19:46.286Z,95607.62
2018-09-04T12:22:20.958Z,95607.52
2018-09-04T12:24:55.754Z,95609.49
2018-09-04T12:27:30.573Z,95606.80
2018-09-04T12:30:05.711Z,95610.28
2018-09-04T12:32:40.295Z,95610.45
2018-09-04T12:35:15.349Z,95612.05
2018-09-04T12:37:49.674Z,95606.38
2018-09-04T12:40:24.599Z,95608.50
2018-09-04T12:43:00.960Z,95605.87
2018-09-04T12:45:41.269Z,95602.27
2018-09-04T12:48:25.510Z,95601.05
2018-09-04T12:51:01.636Z,95600.27
2018-09-04T12:53:36.083Z,95596.84
2018-09-04T12:56:10.816Z,95602.77
2018-09-04T12:58:45.507Z,95598.73
2018-09-04T13:01:19.976Z,95603.73
2018-09-04T13:03:54.675Z,95605.55
2018-09-04T13:06:31.585Z,95608.88
2018-09-04T13:09:07.388Z,95601.02
2018-09-04T13:11:42.034Z,95597.17
2018-09-04T13:14:16.311Z,95607.09
2018-09-04T13:16:50.671Z,95604.37
2018-09-04T13:19:25.101Z,95602.73
2018-09-04T13:22:00.088Z,95605.08
2018-09-04T13:24:35.200Z,95604.83
2018-09-04T13:27:09.742Z,95612.05
2018-09-04T13:29:44.449Z,95609.44
2018-09-04T13:32:19.190Z,95607.81
2018-09-04T13:34:53.675Z,95621.88
2018-09-04T13:37:28.072Z,95619.39
2018-09-04T13:40:03.464Z,95620.19
2018-09-04T13:42:38.235Z,95613.00
2018-09-04T13:45:13.150Z,95609.07
2018-09-04T13:47:47.824Z,95611.43
2018-09-04T13:50:22.679Z,95619.41
2018-09-04T13:52:57.825Z,95607.22
2018-09-04T13:55:32.339Z,95604.61
2018-09-04T13:58:06.743Z,95604.23
2018-09-04T14:00:41.068Z,95606.20
2018-09-04T14:03:15.555Z,95608.85
2018-09-04T14:05:49.868Z,95608.03
2018-09-04T14:08:24.307Z,95609.13
2018-09-04T14:10:59.813Z,95611.84
2018-09-04T14:13:34.449Z,95613.31
2018-09-04T14:16:10.196Z,95612.28
2018-09-04T14:18:44.920Z,95612.94
2018-09-04T14:21:19.256Z,95616.18
2018-09-04T14:23:54.043Z,95619.64
2018-09-04T14:26:28.607Z,95615.91
2018-09-04T14:29:06.958Z,95620.72
2018-09-04T14:31:38.001Z,95620.98
2018-09-04T14:34:12.481Z,95618.59
2018-09-04T14:36:47.273Z,95620.08
2018-09-04T14:39:22.183Z,95622.73
2018-09-04T14:41:56.607Z,95614.00
2018-09-04T14:44:31.064Z,95611.08
2018-09-04T14:47:05.760Z,95608.34
2018-09-04T14:49:40.095Z,95615.17
2018-09-04T14:52:14.391Z,95615.31
2018-09-04T14:54:48.749Z,95613.83
2018-09-04T14:57:23.541Z,95615.52
2018-09-04T14:59:58.096Z,95610.52
2018-09-04T15:02:32.892Z,95610.81
2018-09-04T15:05:11.309Z,95612.41
2018-09-04T15:07:45.834Z,95612.67
2018-09-04T15:10:20.447Z,95607.15
2018-09-04T15:12:55.232Z,95616.59
2018-09-04T15:15:30.237Z,95619.76
2018-09-04T15:18:05.016Z,95616.84
2018-09-04T15:20:39.915Z,95616.09
2018-09-04T15:23:14.688Z,95615.78
2018-09-04T15:25:49.109Z,95615.42
2018-09-04T15:28:33.198Z,95619.39
2018-09-04T15:31:15.260Z,95612.82
2018-09-04T15:33:50.214Z,95621.05
2018-09-04T15:36:25.081Z,95620.55
2018-09-04T15:38:59.613Z,95625.12
2018-09-04T15:41:34.127Z,95632.55
2018-09-04T15:44:10.862Z,95626.75
2018-09-04T15:46:45.424Z,95624.41
2018-09-04T15:49:25.425Z,95621.25
2018-09-04T15:52:25.776Z,95623.34
2018-09-04T15:55:01.876Z,95614.59
2018-09-04T15:57:36.487Z,95612.20
2018-09-04T16:00:10.832Z,95608.42
2018-09-04T16:02:45.199Z,95611.31
2018-09-04T16:05:20.221Z,95615.47
2018-09-04T16:07:54.748Z,95612.41
2018-09-04T16:10:29.078Z,95613.38
2018-09-04T16:13:03.592Z,95617.63
2018-09-04T16:15:38.431Z,95613.75
2018-09-04T16:18:12.772Z,95607.53
2018-09-04T16:20:47.436Z,95615.50
2018-09-04T16:23:21.907Z,95614.30
2018-09-04T16:26:06.618Z,95615.28
2018-09-04T16:28:41.506Z,95612.57
2018-09-04T16:31:15.964Z,95618.53
2018-09-04T16:33:50.635Z,95621.30
2018-09-04T16:36:25.385Z,95627.79
2018-09-04T16:38:59.847Z,95622.03
2018-09-04T16:41:34.361Z,95617.11
2018-09-04T16:44:08.923Z,95621.73
2018-09-04T16:46:49.054Z,95621.16
2018-09-04T16:49:25.847Z,95620.80
2018-09-04T16:52:14.614Z,95625.53
2018-09-04T16:54:49.412Z,95631.36
2018-09-04T16:57:24.115Z,95634.34
2018-09-04T16:59:59.210Z,95628.26
2018-09-04T17:02:34.240Z,95627.31
2018-09-04T17:05:09.109Z,95629.56
2018-09-04T17:07:44.207Z,95631.59
2018-09-04T17:10:19.064Z,95630.20
2018-09-04T17:12:53.522Z,95628.52
2018-09-04T17:15:28.267Z,95631.69
2018-09-04T17:18:03.013Z,95636.91
2018-09-04T17:20:37.331Z,95637.30
2018-09-04T17:23:11.736Z,95645.08
2018-09-04T17:25:46.901Z,95644.67
2018-09-04T17:28:21.480Z,95634.56
2018-09-04T17:30:56.036Z,95638.14
2018-09-04T17:33:30.441Z,95640.63
2018-09-04T17:36:04.727Z,95645.24
2018-09-04T17:38:39.128Z,95647.48
2018-09-04T17:41:13.840Z,95656.81
2018-09-04T17:43:50.276Z,95650.59
2018-09-04T17:46:24.957Z,95661.22
2018-09-04T17:48:59.335Z,95660.78
2018-09-04T17:51:33.792Z,95665.92
2018-09-04T17:54:14.248Z,95668.11
2018-09-04T17:56:48.715Z,95665.92
2018-09-04T17:59:24.156Z,95666.30
2018-09-04T18:01:58.671Z,95665.73
2018-09-04T18:04:33.676Z,95665.80
2018-09-04T18:07:08.456Z,95675.20
2018-09-04T18:09:43.024Z,95667.53
2018-09-04T18:12:17.892Z,95671.74
2018-09-04T18:14:52.688Z,95669.47
2018-09-04T18:17:27.384Z,95677.42
2018-09-04T18:20:02.732Z,95679.69
2018-09-04T18:22:37.516Z,95681.30
2018-09-04T18:25:11.808Z,95689.28
2018-09-04T18:27:46.176Z,95693.09
2018-09-04T18:30:20.456Z,95698.03
2018-09-04T18:32:55.579Z,95699.86
2018-09-04T18:35:30.259Z,95697.64
2018-09-04T18:38:05.175Z,95697.27
2018-09-04T18:40:40.031Z,95702.48
2018-09-04T18:43:14.809Z,95699.17
2018-09-04T18:45:57.179Z,95691.88
2018-09-04T18:48:31.557Z,95704.70
2018-09-04T18:51:06.065Z,95704.36
2018-09-04T18:53:41.052Z,95705.62
2018-09-04T18:56:15.471Z,95711.63
2018-09-04T18:58:50.538Z,95714.40
2018-09-04T19:01:25.036Z,95717.14
2018-09-04T19:03:59.323Z,95724.70
2018-09-04T19:06:33.840Z,95726.72
2018-09-04T19:09:08.560Z,95723.23
2018-09-04T19:11:43.829Z,95726.38
2018-09-04T19:14:18.328Z,95725.97
2018-09-04T19:16:53.467Z,95722.03
2018-09-04T19:19:28.401Z,95716.71
2018-09-04T19:22:03.227Z,95715.30
2018-09-04T19:24:37.600Z,95717.42
2018-09-04T19:27:12.307Z,95716.17
2018-09-04T19:29:46.844Z,95724.30
2018-09-04T19:32:21.264Z,95725.13
2018-09-04T19:34:55.696Z,95723.98
2018-09-04T19:37:30.484Z,95722.80
2018-09-04T19:40:05.639Z,95724.33
2018-09-04T19:42:41.458Z,95729.53
2018-09-04T19:45:15.784Z,95729.40
2018-09-04T19:47:50.253Z,95735.39
2018-09-04T19:50:24.956Z,95733.92
2018-09-04T19:52:59.580Z,95737.44
2018-09-04T19:55:34.228Z,95738.11
2018-09-04T19:58:08.836Z,95732.62
2018-09-04T20:00:43.332Z,95734.16
2018-09-04T20:03:18.114Z,95738.77
2018-09-04T20:05:52.569Z,95741.00
2018-09-04T20:08:27.022Z,95743.05
2018-09-04T20:11:01.324Z,95745.31
2018-09-04T20:13:36.243Z,95745.69
2018-09-04T20:16:10.707Z,95744.08
2018-09-04T20:18:45.199Z,95743.17
2018-09-04T20:21:19.691Z,95746.46
2018-09-04T20:23:54.203Z,95750.63
2018-09-04T20:26:28.930Z,95753.55
2018-09-04T20:29:03.417Z,95749.23
2018-09-04T20:31:38.199Z,95746.03
2018-09-04T20:34:12.580Z,95752.59
2018-09-04T20:36:47.040Z,95748.14
2018-09-04T20:39:21.505Z,95751.72
2018-09-04T20:41:56.711Z,95748.58
2018-09-04T20:44:31.412Z,95752.59
2018-09-04T20:47:06.337Z,95748.14
2018-09-04T20:49:41.374Z,95750.05
2018-09-04T20:52:15.788Z,95751.72
2018-09-04T20:54:50.310Z,95752.71
2018-09-04T20:57:41.143Z,95756.14
2018-09-04T21:00:26.791Z,95751.30
2018-09-04T21:03:12.493Z,95751.22
2018-09-04T21:05:58.316Z,95748.59
2018-09-04T21:08:47.076Z,95751.52
2018-09-04T21:11:21.951Z,95751.00
2018-09-04T21:13:56.416Z,95752.09
2018-09-04T21:16:31.112Z,95753.63
2018-09-04T21:19:05.868Z,95753.84
2018-09-04T21:21:40.335Z,95754.94
2018-09-04T21:24:14.748Z,95757.27
2018-09-04T21:26:50.197Z,95749.45
2018-09-04T21:29:25.305Z,95748.22
2018-09-04T21:31:59.916Z,95743.98
2018-09-04T21:34:34.484Z,95753.33
2018-09-04T21:37:09.123Z,95757.27
2018-09-04T21:39:43.477Z,95756.14
2018-09-04T21:42:18.530Z,95755.05
2018-09-04T21:44:53.207Z,95754.07
2018-09-04T21:47:27.928Z,95753.05
2018-09-04T21:50:02.512Z,95760.91
2018-09-04T21:52:37.336Z,95753.84
2018-09-04T21:55:11.683Z,95760.98
2018-09-04T21:57:46.104Z,95757.56
2018-09-04T22:00:25.319Z,95757.45
2018-09-04T22:02:59.865Z,95755.05
2018-09-04T22:05:34.731Z,95758.58
2018-09-04T22:08:09.215Z,95753.52
2018-09-04T22:10:44.127Z,95751.52
2018-09-04T22:13:19.142Z,95750.09
2018-09-04T22:15:53.888Z,95752.53
2018-09-04T22:18:28.155Z,95759.98
2018-09-04T22:21:02.789Z,95762.13
2018-09-04T22:23:38.027Z,95762.97
2018-09-04T22:26:12.417Z,95768.38
2018-09-04T22:28:47.248Z,95761.52
2018-09-04T22:31:22.285Z,95763.48
2018-09-04T22:33:56.705Z,95769.80
2018-09-04T22:36:31.002Z,95768.70
2018-09-04T22:39:06.881Z,95770.52
2018-09-04T22:41:41.838Z,95767.31
2018-09-04T22:44:16.628Z,95766.21
2018-09-04T22:46:51.531Z,95765.63
2018-09-04T22:49:26.175Z,95770.87
2018-09-04T22:52:01.555Z,95771.39
2018-09-04T22:54:36.211Z,95770.95
2018-09-04T22:57:10.940Z,95764.31
2018-09-04T22:59:45.651Z,95764.16
2018-09-04T23:02:20.898Z,95766.50
2018-09-04T23:04:55.655Z,95764.78
2018-09-04T23:07:30.183Z,95758.14
2018-09-04T23:10:04.755Z,95759.97
2018-09-04T23:12:39.318Z,95761.06
2018-09-04T23:15:13.845Z,95764.56
2018-09-04T23:17:48.164Z,95763.91
2018-09-04T23:20:25.254Z,95763.39
2018-09-04T23:22:59.955Z,95766.96
2018-09-04T23:25:35.786Z,95757.63
2018-09-04T23:28:12.688Z,95758.61
2018-09-04T23:30:48.024Z,95758.94
2018-09-04T23:33:22.581Z,95758.31
2018-09-04T23:35:57.210Z,95760.27
2018-09-04T23:38:31.659Z,95754.67
2018-09-04T23:41:07.124Z,95752.88
2018-09-04T23:47:19.667Z,95754.22
2018-09-04T23:49:54.123Z,95749.14
2018-09-04T23:52:28.449Z,95751.17
2018-09-04T23:55:03.251Z,95747.08
2018-09-04T23:57:37.943Z,95745.69
